sensor_id;sensor_type;location;lat;lon;timestamp;P1;durP1;ratioP1;P2;durP2;ratioP2
44214;SDS011;29884;47.450;19.124;2023-01-01T00:02:04;209.15;;;124.43;;
44214;SDS011;29884;47.450;19.124;2023-01-01T00:04:31;218.38;;;128.75;;
44214;SDS011;29884;47.450;19.124;2023-01-01T00:06:58;240.50;;;144.50;;
44214;SDS011;29884;47.450;19.124;2023-01-01T00:09:24;235.10;;;141.15;;
44214;SDS011;29884;47.450;19.124;2023-01-01T00:12:09;204.85;;;121.50;;
44214;SDS011;29884;47.450;19.124;2023-01-01T00:14:35;214.02;;;124.40;;
44214;SDS011;29884;47.450;19.124;2023-01-01T00:17:03;206.98;;;118.13;;
44214;SDS011;29884;47.450;19.124;2023-01-01T00:19:29;208.02;;;124.10;;
44214;SDS011;29884;47.450;19.124;2023-01-01T00:21:55;231.85;;;133.57;;
44214;SDS011;29884;47.450;19.124;2023-01-01T00:24:20;236.90;;;135.38;;
44214;SDS011;29884;47.450;19.124;2023-01-01T00:26:46;244.18;;;142.82;;
44214;SDS011;29884;47.450;19.124;2023-01-01T00:29:12;230.82;;;136.70;;
44214;SDS011;29884;47.450;19.124;2023-01-01T00:31:38;233.30;;;134.85;;
44214;SDS011;29884;47.450;19.124;2023-01-01T00:34:03;235.10;;;136.43;;
44214;SDS011;29884;47.450;19.124;2023-01-01T00:36:29;236.23;;;134.50;;
44214;SDS011;29884;47.450;19.124;2023-01-01T00:38:55;236.32;;;135.80;;
44214;SDS011;29884;47.450;19.124;2023-01-01T00:41:21;233.20;;;134.82;;
44214;SDS011;29884;47.450;19.124;2023-01-01T00:43:47;227.05;;;133.50;;
44214;SDS011;29884;47.450;19.124;2023-01-01T00:46:13;228.30;;;132.68;;
44214;SDS011;29884;47.450;19.124;2023-01-01T00:48:39;236.88;;;132.60;;
44214;SDS011;29884;47.450;19.124;2023-01-01T00:51:05;235.65;;;135.63;;
44214;SDS011;29884;47.450;19.124;2023-01-01T00:53:31;227.32;;;131.00;;
44214;SDS011;29884;47.450;19.124;2023-01-01T00:55:57;224.55;;;130.00;;
44214;SDS011;29884;47.450;19.124;2023-01-01T00:58:23;223.27;;;129.68;;
44214;SDS011;29884;47.450;19.124;2023-01-01T01:00:50;217.20;;;127.28;;
44214;SDS011;29884;47.450;19.124;2023-01-01T01:03:17;226.88;;;129.27;;
44214;SDS011;29884;47.450;19.124;2023-01-01T01:08:33;227.63;;;128.63;;
44214;SDS011;29884;47.450;19.124;2023-01-01T01:11:11;232.30;;;129.95;;
44214;SDS011;29884;47.450;19.124;2023-01-01T01:13:41;215.20;;;125.80;;
44214;SDS011;29884;47.450;19.124;2023-01-01T01:18:43;224.57;;;129.77;;
44214;SDS011;29884;47.450;19.124;2023-01-01T01:21:09;228.23;;;129.88;;
44214;SDS011;29884;47.450;19.124;2023-01-01T01:23:35;218.25;;;126.93;;
44214;SDS011;29884;47.450;19.124;2023-01-01T01:26:05;220.20;;;126.38;;
44214;SDS011;29884;47.450;19.124;2023-01-01T01:28:32;227.70;;;130.27;;
44214;SDS011;29884;47.450;19.124;2023-01-01T01:30:58;234.95;;;130.95;;
44214;SDS011;29884;47.450;19.124;2023-01-01T01:33:24;232.55;;;129.82;;
44214;SDS011;29884;47.450;19.124;2023-01-01T01:35:50;238.00;;;132.13;;
44214;SDS011;29884;47.450;19.124;2023-01-01T01:38:16;219.65;;;127.25;;
44214;SDS011;29884;47.450;19.124;2023-01-01T01:40:42;220.13;;;127.55;;
44214;SDS011;29884;47.450;19.124;2023-01-01T01:43:16;221.25;;;126.25;;
44214;SDS011;29884;47.450;19.124;2023-01-01T01:45:49;223.90;;;125.85;;
44214;SDS011;29884;47.450;19.124;2023-01-01T01:48:20;212.32;;;122.93;;
44214;SDS011;29884;47.450;19.124;2023-01-01T01:50:47;221.35;;;125.95;;
44214;SDS011;29884;47.450;19.124;2023-01-01T01:53:16;224.75;;;125.07;;
44214;SDS011;29884;47.450;19.124;2023-01-01T01:55:58;207.55;;;120.50;;
44214;SDS011;29884;47.450;19.124;2023-01-01T01:58:27;217.07;;;124.78;;
44214;SDS011;29884;47.450;19.124;2023-01-01T02:00:55;215.07;;;124.72;;
44214;SDS011;29884;47.450;19.124;2023-01-01T02:05:56;203.05;;;117.85;;
44214;SDS011;29884;47.450;19.124;2023-01-01T02:08:23;202.07;;;113.97;;
44214;SDS011;29884;47.450;19.124;2023-01-01T02:10:50;199.13;;;115.25;;
44214;SDS011;29884;47.450;19.124;2023-01-01T02:13:16;194.50;;;113.93;;
44214;SDS011;29884;47.450;19.124;2023-01-01T02:18:35;192.18;;;109.57;;
44214;SDS011;29884;47.450;19.124;2023-01-01T02:29:47;189.43;;;106.75;;
44214;SDS011;29884;47.450;19.124;2023-01-01T02:32:21;182.35;;;105.00;;
44214;SDS011;29884;47.450;19.124;2023-01-01T02:34:54;178.55;;;103.47;;
44214;SDS011;29884;47.450;19.124;2023-01-01T02:37:53;184.35;;;104.45;;
44214;SDS011;29884;47.450;19.124;2023-01-01T02:40:22;180.90;;;103.50;;
44214;SDS011;29884;47.450;19.124;2023-01-01T02:42:51;180.27;;;103.07;;
44214;SDS011;29884;47.450;19.124;2023-01-01T02:45:18;181.57;;;103.53;;
44214;SDS011;29884;47.450;19.124;2023-01-01T02:47:45;174.50;;;101.90;;
44214;SDS011;29884;47.450;19.124;2023-01-01T02:50:11;187.27;;;103.90;;
44214;SDS011;29884;47.450;19.124;2023-01-01T02:55:22;172.60;;;101.75;;
44214;SDS011;29884;47.450;19.124;2023-01-01T03:01:28;175.13;;;98.82;;
44214;SDS011;29884;47.450;19.124;2023-01-01T03:06:54;174.93;;;97.90;;
44214;SDS011;29884;47.450;19.124;2023-01-01T03:17:57;208.15;;;95.75;;
44214;SDS011;29884;47.450;19.124;2023-01-01T03:20:26;181.68;;;96.32;;
44214;SDS011;29884;47.450;19.124;2023-01-01T03:22:58;212.80;;;96.05;;
44214;SDS011;29884;47.450;19.124;2023-01-01T03:25:33;169.38;;;92.32;;
44214;SDS011;29884;47.450;19.124;2023-01-01T03:28:06;217.52;;;94.13;;
44214;SDS011;29884;47.450;19.124;2023-01-01T03:30:37;204.20;;;93.68;;
44214;SDS011;29884;47.450;19.124;2023-01-01T03:33:07;172.63;;;89.68;;
44214;SDS011;29884;47.450;19.124;2023-01-01T03:38:14;213.85;;;90.47;;
44214;SDS011;29884;47.450;19.124;2023-01-01T03:40:56;187.55;;;90.22;;
44214;SDS011;29884;47.450;19.124;2023-01-01T03:43:38;184.68;;;88.35;;
44214;SDS011;29884;47.450;19.124;2023-01-01T03:46:11;254.85;;;89.38;;
44214;SDS011;29884;47.450;19.124;2023-01-01T03:48:38;186.30;;;89.65;;
44214;SDS011;29884;47.450;19.124;2023-01-01T03:53:52;173.75;;;85.78;;
44214;SDS011;29884;47.450;19.124;2023-01-01T03:59:08;200.05;;;88.95;;
44214;SDS011;29884;47.450;19.124;2023-01-01T04:01:56;192.30;;;86.72;;
44214;SDS011;29884;47.450;19.124;2023-01-01T04:04:23;190.32;;;89.90;;
44214;SDS011;29884;47.450;19.124;2023-01-01T04:06:50;202.55;;;87.70;;
44214;SDS011;29884;47.450;19.124;2023-01-01T04:09:18;211.77;;;90.38;;
44214;SDS011;29884;47.450;19.124;2023-01-01T04:11:48;225.82;;;89.20;;
44214;SDS011;29884;47.450;19.124;2023-01-01T04:14:26;179.52;;;84.03;;
44214;SDS011;29884;47.450;19.124;2023-01-01T04:16:53;233.73;;;87.47;;
44214;SDS011;29884;47.450;19.124;2023-01-01T04:19:22;185.05;;;83.70;;
44214;SDS011;29884;47.450;19.124;2023-01-01T04:21:47;230.15;;;84.50;;
44214;SDS011;29884;47.450;19.124;2023-01-01T04:24:13;223.05;;;76.65;;
44214;SDS011;29884;47.450;19.124;2023-01-01T04:26:39;215.50;;;78.88;;
44214;SDS011;29884;47.450;19.124;2023-01-01T04:29:05;179.35;;;74.18;;
44214;SDS011;29884;47.450;19.124;2023-01-01T04:31:33;188.43;;;70.35;;
44214;SDS011;29884;47.450;19.124;2023-01-01T04:33:59;184.65;;;71.47;;
44214;SDS011;29884;47.450;19.124;2023-01-01T04:36:25;176.50;;;72.45;;
44214;SDS011;29884;47.450;19.124;2023-01-01T04:38:51;154.55;;;72.93;;
44214;SDS011;29884;47.450;19.124;2023-01-01T04:41:17;138.57;;;67.35;;
44214;SDS011;29884;47.450;19.124;2023-01-01T04:43:45;159.77;;;66.45;;
44214;SDS011;29884;47.450;19.124;2023-01-01T04:46:14;155.05;;;63.63;;
44214;SDS011;29884;47.450;19.124;2023-01-01T04:48:40;126.38;;;64.55;;
44214;SDS011;29884;47.450;19.124;2023-01-01T04:51:08;151.88;;;62.40;;
44214;SDS011;29884;47.450;19.124;2023-01-01T04:53:36;120.80;;;62.50;;
44214;SDS011;29884;47.450;19.124;2023-01-01T04:56:06;138.93;;;62.28;;
44214;SDS011;29884;47.450;19.124;2023-01-01T04:58:34;121.82;;;62.88;;
44214;SDS011;29884;47.450;19.124;2023-01-01T05:01:01;125.18;;;60.42;;
44214;SDS011;29884;47.450;19.124;2023-01-01T05:03:27;124.20;;;58.95;;
44214;SDS011;29884;47.450;19.124;2023-01-01T05:06:02;118.85;;;55.78;;
44214;SDS011;29884;47.450;19.124;2023-01-01T05:08:33;110.80;;;53.58;;
44214;SDS011;29884;47.450;19.124;2023-01-01T05:11:01;120.45;;;52.85;;
44214;SDS011;29884;47.450;19.124;2023-01-01T05:13:28;104.63;;;49.72;;
44214;SDS011;29884;47.450;19.124;2023-01-01T05:15:54;87.22;;;48.67;;
44214;SDS011;29884;47.450;19.124;2023-01-01T05:18:19;92.93;;;46.80;;
44214;SDS011;29884;47.450;19.124;2023-01-01T05:20:45;110.10;;;46.88;;
44214;SDS011;29884;47.450;19.124;2023-01-01T05:23:11;85.82;;;47.35;;
44214;SDS011;29884;47.450;19.124;2023-01-01T05:25:37;95.38;;;47.22;;
44214;SDS011;29884;47.450;19.124;2023-01-01T05:28:02;102.40;;;45.30;;
44214;SDS011;29884;47.450;19.124;2023-01-01T05:30:28;119.45;;;45.55;;
44214;SDS011;29884;47.450;19.124;2023-01-01T05:32:54;79.57;;;43.90;;
44214;SDS011;29884;47.450;19.124;2023-01-01T05:35:20;79.65;;;43.25;;
44214;SDS011;29884;47.450;19.124;2023-01-01T05:37:46;91.90;;;43.55;;
44214;SDS011;29884;47.450;19.124;2023-01-01T05:40:11;91.32;;;44.53;;
44214;SDS011;29884;47.450;19.124;2023-01-01T05:42:37;119.50;;;49.00;;
44214;SDS011;29884;47.450;19.124;2023-01-01T05:45:03;111.40;;;45.47;;
44214;SDS011;29884;47.450;19.124;2023-01-01T05:47:29;113.82;;;46.88;;
44214;SDS011;29884;47.450;19.124;2023-01-01T05:49:54;95.70;;;42.65;;
44214;SDS011;29884;47.450;19.124;2023-01-01T05:52:20;91.88;;;42.95;;
44214;SDS011;29884;47.450;19.124;2023-01-01T05:54:46;80.10;;;39.30;;
44214;SDS011;29884;47.450;19.124;2023-01-01T05:57:11;90.72;;;37.22;;
44214;SDS011;29884;47.450;19.124;2023-01-01T05:59:37;67.57;;;35.22;;
44214;SDS011;29884;47.450;19.124;2023-01-01T06:02:03;83.38;;;36.72;;
44214;SDS011;29884;47.450;19.124;2023-01-01T06:04:29;80.95;;;37.97;;
44214;SDS011;29884;47.450;19.124;2023-01-01T06:06:55;68.35;;;35.33;;
44214;SDS011;29884;47.450;19.124;2023-01-01T06:09:20;78.88;;;36.65;;
44214;SDS011;29884;47.450;19.124;2023-01-01T06:11:46;73.00;;;36.67;;
44214;SDS011;29884;47.450;19.124;2023-01-01T06:14:11;74.65;;;34.40;;
44214;SDS011;29884;47.450;19.124;2023-01-01T06:16:37;65.80;;;35.35;;
44214;SDS011;29884;47.450;19.124;2023-01-01T06:19:03;63.45;;;37.08;;
44214;SDS011;29884;47.450;19.124;2023-01-01T06:21:29;66.18;;;34.83;;
44214;SDS011;29884;47.450;19.124;2023-01-01T06:23:55;74.57;;;35.22;;
44214;SDS011;29884;47.450;19.124;2023-01-01T06:26:23;62.97;;;36.70;;
44214;SDS011;29884;47.450;19.124;2023-01-01T06:28:51;62.33;;;35.80;;
44214;SDS011;29884;47.450;19.124;2023-01-01T06:31:18;73.55;;;36.92;;
44214;SDS011;29884;47.450;19.124;2023-01-01T06:33:45;71.68;;;35.50;;
44214;SDS011;29884;47.450;19.124;2023-01-01T06:36:12;71.65;;;37.25;;
44214;SDS011;29884;47.450;19.124;2023-01-01T06:38:40;79.00;;;36.67;;
44214;SDS011;29884;47.450;19.124;2023-01-01T06:41:10;86.95;;;36.85;;
44214;SDS011;29884;47.450;19.124;2023-01-01T06:43:37;97.35;;;38.08;;
44214;SDS011;29884;47.450;19.124;2023-01-01T06:48:31;89.47;;;41.53;;
44214;SDS011;29884;47.450;19.124;2023-01-01T06:51:03;92.15;;;43.97;;
44214;SDS011;29884;47.450;19.124;2023-01-01T06:53:30;103.40;;;46.67;;
44214;SDS011;29884;47.450;19.124;2023-01-01T06:55:56;87.88;;;44.17;;
44214;SDS011;29884;47.450;19.124;2023-01-01T06:58:22;94.90;;;39.50;;
44214;SDS011;29884;47.450;19.124;2023-01-01T07:00:48;76.13;;;36.75;;
44214;SDS011;29884;47.450;19.124;2023-01-01T07:03:13;99.80;;;39.05;;
44214;SDS011;29884;47.450;19.124;2023-01-01T07:05:39;96.90;;;39.17;;
44214;SDS011;29884;47.450;19.124;2023-01-01T07:08:05;83.50;;;35.60;;
44214;SDS011;29884;47.450;19.124;2023-01-01T07:10:30;82.88;;;36.20;;
44214;SDS011;29884;47.450;19.124;2023-01-01T07:12:56;115.30;;;36.08;;
44214;SDS011;29884;47.450;19.124;2023-01-01T07:15:22;89.90;;;36.40;;
44214;SDS011;29884;47.450;19.124;2023-01-01T07:17:48;86.32;;;36.65;;
44214;SDS011;29884;47.450;19.124;2023-01-01T07:20:13;101.85;;;37.55;;
44214;SDS011;29884;47.450;19.124;2023-01-01T07:22:39;78.32;;;37.60;;
44214;SDS011;29884;47.450;19.124;2023-01-01T07:25:06;102.63;;;39.35;;
44214;SDS011;29884;47.450;19.124;2023-01-01T07:27:32;107.30;;;39.10;;
44214;SDS011;29884;47.450;19.124;2023-01-01T07:29:57;83.25;;;38.88;;
44214;SDS011;29884;47.450;19.124;2023-01-01T07:32:23;67.63;;;36.80;;
44214;SDS011;29884;47.450;19.124;2023-01-01T07:34:49;112.70;;;38.50;;
44214;SDS011;29884;47.450;19.124;2023-01-01T07:37:15;117.03;;;39.28;;
44214;SDS011;29884;47.450;19.124;2023-01-01T07:39:40;123.22;;;38.75;;
44214;SDS011;29884;47.450;19.124;2023-01-01T07:42:06;87.38;;;38.63;;
44214;SDS011;29884;47.450;19.124;2023-01-01T07:44:32;93.38;;;38.75;;
44214;SDS011;29884;47.450;19.124;2023-01-01T07:47:04;81.45;;;38.30;;
44214;SDS011;29884;47.450;19.124;2023-01-01T07:49:40;72.18;;;38.70;;
44214;SDS011;29884;47.450;19.124;2023-01-01T07:52:06;78.90;;;39.38;;
44214;SDS011;29884;47.450;19.124;2023-01-01T07:54:31;94.78;;;39.00;;
44214;SDS011;29884;47.450;19.124;2023-01-01T07:56:57;74.22;;;38.80;;
44214;SDS011;29884;47.450;19.124;2023-01-01T07:59:23;74.13;;;38.03;;
44214;SDS011;29884;47.450;19.124;2023-01-01T08:01:48;63.38;;;39.17;;
44214;SDS011;29884;47.450;19.124;2023-01-01T08:04:14;71.68;;;36.25;;
44214;SDS011;29884;47.450;19.124;2023-01-01T08:06:40;77.20;;;37.70;;
44214;SDS011;29884;47.450;19.124;2023-01-01T08:09:05;72.68;;;37.38;;
44214;SDS011;29884;47.450;19.124;2023-01-01T08:11:31;82.40;;;39.92;;
44214;SDS011;29884;47.450;19.124;2023-01-01T08:13:57;73.18;;;38.85;;
44214;SDS011;29884;47.450;19.124;2023-01-01T08:16:22;72.60;;;39.85;;
44214;SDS011;29884;47.450;19.124;2023-01-01T08:18:48;72.30;;;38.22;;
44214;SDS011;29884;47.450;19.124;2023-01-01T08:21:14;69.38;;;40.05;;
44214;SDS011;29884;47.450;19.124;2023-01-01T08:23:40;65.45;;;36.78;;
44214;SDS011;29884;47.450;19.124;2023-01-01T08:26:05;67.90;;;35.83;;
44214;SDS011;29884;47.450;19.124;2023-01-01T08:28:31;82.35;;;37.13;;
44214;SDS011;29884;47.450;19.124;2023-01-01T08:30:57;73.78;;;37.55;;
44214;SDS011;29884;47.450;19.124;2023-01-01T08:33:24;65.70;;;37.38;;
44214;SDS011;29884;47.450;19.124;2023-01-01T08:35:50;74.35;;;32.55;;
44214;SDS011;29884;47.450;19.124;2023-01-01T08:38:16;68.60;;;33.35;;
44214;SDS011;29884;47.450;19.124;2023-01-01T08:40:42;73.53;;;34.08;;
44214;SDS011;29884;47.450;19.124;2023-01-01T08:43:08;65.22;;;34.13;;
44214;SDS011;29884;47.450;19.124;2023-01-01T08:45:33;63.78;;;34.50;;
44214;SDS011;29884;47.450;19.124;2023-01-01T08:47:59;75.13;;;34.38;;
44214;SDS011;29884;47.450;19.124;2023-01-01T08:50:25;67.45;;;33.28;;
44214;SDS011;29884;47.450;19.124;2023-01-01T08:52:50;69.20;;;33.83;;
44214;SDS011;29884;47.450;19.124;2023-01-01T08:55:16;68.00;;;35.35;;
44214;SDS011;29884;47.450;19.124;2023-01-01T08:57:42;68.22;;;35.65;;
44214;SDS011;29884;47.450;19.124;2023-01-01T09:00:08;66.10;;;35.47;;
44214;SDS011;29884;47.450;19.124;2023-01-01T09:02:34;74.57;;;34.28;;
44214;SDS011;29884;47.450;19.124;2023-01-01T09:04:59;62.70;;;34.10;;
44214;SDS011;29884;47.450;19.124;2023-01-01T09:07:25;61.10;;;33.03;;
44214;SDS011;29884;47.450;19.124;2023-01-01T09:09:51;61.25;;;33.70;;
44214;SDS011;29884;47.450;19.124;2023-01-01T09:12:16;65.45;;;34.38;;
44214;SDS011;29884;47.450;19.124;2023-01-01T09:14:42;61.22;;;32.58;;
44214;SDS011;29884;47.450;19.124;2023-01-01T09:17:11;53.63;;;31.58;;
44214;SDS011;29884;47.450;19.124;2023-01-01T09:19:37;55.78;;;32.72;;
44214;SDS011;29884;47.450;19.124;2023-01-01T09:22:02;53.92;;;32.45;;
44214;SDS011;29884;47.450;19.124;2023-01-01T09:24:28;60.35;;;33.45;;
44214;SDS011;29884;47.450;19.124;2023-01-01T09:26:54;54.10;;;32.28;;
44214;SDS011;29884;47.450;19.124;2023-01-01T09:29:19;55.92;;;32.13;;
44214;SDS011;29884;47.450;19.124;2023-01-01T09:31:46;51.75;;;31.33;;
44214;SDS011;29884;47.450;19.124;2023-01-01T09:34:12;48.28;;;30.13;;
44214;SDS011;29884;47.450;19.124;2023-01-01T09:36:38;46.35;;;29.20;;
44214;SDS011;29884;47.450;19.124;2023-01-01T09:39:04;55.83;;;31.75;;
44214;SDS011;29884;47.450;19.124;2023-01-01T09:46:51;47.90;;;28.08;;
44214;SDS011;29884;47.450;19.124;2023-01-01T09:49:30;49.15;;;27.80;;
44214;SDS011;29884;47.450;19.124;2023-01-01T09:52:02;49.72;;;27.88;;
44214;SDS011;29884;47.450;19.124;2023-01-01T09:56:58;47.55;;;29.27;;
44214;SDS011;29884;47.450;19.124;2023-01-01T09:59:26;48.85;;;29.67;;
44214;SDS011;29884;47.450;19.124;2023-01-01T10:05:03;65.25;;;31.48;;
44214;SDS011;29884;47.450;19.124;2023-01-01T10:07:40;81.25;;;37.15;;
44214;SDS011;29884;47.450;19.124;2023-01-01T10:13:41;49.88;;;25.73;;
44214;SDS011;29884;47.450;19.124;2023-01-01T10:16:14;50.08;;;28.13;;
44214;SDS011;29884;47.450;19.124;2023-01-01T10:18:49;59.28;;;24.35;;
44214;SDS011;29884;47.450;19.124;2023-01-01T10:21:21;54.22;;;24.77;;
44214;SDS011;29884;47.450;19.124;2023-01-01T10:26:23;40.03;;;24.73;;
44214;SDS011;29884;47.450;19.124;2023-01-01T10:28:53;45.75;;;23.13;;
44214;SDS011;29884;47.450;19.124;2023-01-01T10:31:34;46.75;;;24.25;;
44214;SDS011;29884;47.450;19.124;2023-01-01T10:34:07;49.03;;;23.13;;
44214;SDS011;29884;47.450;19.124;2023-01-01T10:36:51;46.75;;;23.48;;
44214;SDS011;29884;47.450;19.124;2023-01-01T10:39:18;45.67;;;24.27;;
44214;SDS011;29884;47.450;19.124;2023-01-01T10:41:44;39.67;;;24.70;;
44214;SDS011;29884;47.450;19.124;2023-01-01T10:44:11;49.53;;;25.63;;
44214;SDS011;29884;47.450;19.124;2023-01-01T10:46:40;39.92;;;24.00;;
44214;SDS011;29884;47.450;19.124;2023-01-01T10:49:20;31.77;;;19.90;;
44214;SDS011;29884;47.450;19.124;2023-01-01T10:51:47;35.75;;;22.35;;
44214;SDS011;29884;47.450;19.124;2023-01-01T10:56:56;38.30;;;19.17;;
44214;SDS011;29884;47.450;19.124;2023-01-01T10:59:37;32.25;;;20.60;;
44214;SDS011;29884;47.450;19.124;2023-01-01T11:02:13;33.83;;;21.77;;
44214;SDS011;29884;47.450;19.124;2023-01-01T11:04:41;36.45;;;20.60;;
44214;SDS011;29884;47.450;19.124;2023-01-01T11:07:06;32.13;;;20.80;;
44214;SDS011;29884;47.450;19.124;2023-01-01T11:09:32;33.47;;;21.10;;
44214;SDS011;29884;47.450;19.124;2023-01-01T11:12:06;34.83;;;20.67;;
44214;SDS011;29884;47.450;19.124;2023-01-01T11:14:51;33.85;;;21.90;;
44214;SDS011;29884;47.450;19.124;2023-01-01T11:17:26;39.40;;;22.65;;
44214;SDS011;29884;47.450;19.124;2023-01-01T11:19:57;33.63;;;21.67;;
44214;SDS011;29884;47.450;19.124;2023-01-01T11:22:34;36.15;;;23.38;;
44214;SDS011;29884;47.450;19.124;2023-01-01T11:27:51;35.45;;;22.30;;
44214;SDS011;29884;47.450;19.124;2023-01-01T11:30:36;31.08;;;20.77;;
44214;SDS011;29884;47.450;19.124;2023-01-01T11:33:03;32.92;;;21.20;;
44214;SDS011;29884;47.450;19.124;2023-01-01T11:35:35;32.60;;;21.38;;
44214;SDS011;29884;47.450;19.124;2023-01-01T11:38:14;37.38;;;24.30;;
44214;SDS011;29884;47.450;19.124;2023-01-01T11:40:53;39.83;;;23.40;;
44214;SDS011;29884;47.450;19.124;2023-01-01T11:43:26;39.33;;;24.90;;
44214;SDS011;29884;47.450;19.124;2023-01-01T11:45:53;37.63;;;23.60;;
44214;SDS011;29884;47.450;19.124;2023-01-01T11:48:27;39.08;;;24.38;;
44214;SDS011;29884;47.450;19.124;2023-01-01T11:50:58;33.92;;;21.25;;
44214;SDS011;29884;47.450;19.124;2023-01-01T11:58:39;32.20;;;21.25;;
44214;SDS011;29884;47.450;19.124;2023-01-01T12:01:18;29.15;;;20.48;;
44214;SDS011;29884;47.450;19.124;2023-01-01T12:14:27;28.65;;;18.98;;
44214;SDS011;29884;47.450;19.124;2023-01-01T12:16:59;27.73;;;19.45;;
44214;SDS011;29884;47.450;19.124;2023-01-01T12:20:21;31.00;;;19.23;;
44214;SDS011;29884;47.450;19.124;2023-01-01T12:22:36;29.75;;;19.25;;
44214;SDS011;29884;47.450;19.124;2023-01-01T12:25:02;27.63;;;19.35;;
44214;SDS011;29884;47.450;19.124;2023-01-01T12:30:39;27.83;;;18.33;;
44214;SDS011;29884;47.450;19.124;2023-01-01T12:50:18;27.33;;;19.63;;
44214;SDS011;29884;47.450;19.124;2023-01-01T12:58:09;26.30;;;18.40;;
44214;SDS011;29884;47.450;19.124;2023-01-01T13:00:47;26.85;;;18.38;;
44214;SDS011;29884;47.450;19.124;2023-01-01T13:03:29;25.02;;;16.40;;
44214;SDS011;29884;47.450;19.124;2023-01-01T13:06:11;23.88;;;17.05;;
44214;SDS011;29884;47.450;19.124;2023-01-01T13:08:38;23.67;;;14.85;;
44214;SDS011;29884;47.450;19.124;2023-01-01T13:11:06;20.27;;;14.48;;
44214;SDS011;29884;47.450;19.124;2023-01-01T13:13:34;21.20;;;15.65;;
44214;SDS011;29884;47.450;19.124;2023-01-01T13:16:00;21.35;;;15.13;;
44214;SDS011;29884;47.450;19.124;2023-01-01T13:18:28;20.23;;;14.52;;
44214;SDS011;29884;47.450;19.124;2023-01-01T13:23:40;22.52;;;15.63;;
44214;SDS011;29884;47.450;19.124;2023-01-01T13:28:42;22.83;;;14.52;;
44214;SDS011;29884;47.450;19.124;2023-01-01T13:31:17;18.98;;;14.63;;
44214;SDS011;29884;47.450;19.124;2023-01-01T13:33:43;16.80;;;13.63;;
44214;SDS011;29884;47.450;19.124;2023-01-01T13:38:44;19.52;;;13.70;;
44214;SDS011;29884;47.450;19.124;2023-01-01T13:51:54;18.95;;;13.63;;
44214;SDS011;29884;47.450;19.124;2023-01-01T13:57:42;20.10;;;14.60;;
44214;SDS011;29884;47.450;19.124;2023-01-01T14:02:56;24.20;;;16.45;;
44214;SDS011;29884;47.450;19.124;2023-01-01T14:05:34;21.38;;;14.90;;
44214;SDS011;29884;47.450;19.124;2023-01-01T14:08:24;22.73;;;15.18;;
44214;SDS011;29884;47.450;19.124;2023-01-01T14:10:57;23.58;;;15.75;;
44214;SDS011;29884;47.450;19.124;2023-01-01T14:13:29;24.45;;;15.93;;
44214;SDS011;29884;47.450;19.124;2023-01-01T14:16:04;22.50;;;15.93;;
44214;SDS011;29884;47.450;19.124;2023-01-01T14:19:07;23.55;;;17.02;;
44214;SDS011;29884;47.450;19.124;2023-01-01T14:21:31;24.13;;;16.45;;
44214;SDS011;29884;47.450;19.124;2023-01-01T14:23:59;25.27;;;17.20;;
44214;SDS011;29884;47.450;19.124;2023-01-01T14:26:29;25.60;;;16.58;;
44214;SDS011;29884;47.450;19.124;2023-01-01T14:28:57;25.33;;;17.48;;
44214;SDS011;29884;47.450;19.124;2023-01-01T14:31:32;25.60;;;17.63;;
44214;SDS011;29884;47.450;19.124;2023-01-01T14:34:12;26.55;;;16.63;;
44214;SDS011;29884;47.450;19.124;2023-01-01T14:36:47;25.90;;;17.40;;
44214;SDS011;29884;47.450;19.124;2023-01-01T14:39:27;24.48;;;16.30;;
44214;SDS011;29884;47.450;19.124;2023-01-01T14:42:00;29.15;;;18.52;;
44214;SDS011;29884;47.450;19.124;2023-01-01T14:44:34;29.13;;;17.48;;
44214;SDS011;29884;47.450;19.124;2023-01-01T14:47:03;28.15;;;18.38;;
44214;SDS011;29884;47.450;19.124;2023-01-01T14:49:40;27.48;;;18.27;;
44214;SDS011;29884;47.450;19.124;2023-01-01T14:52:08;26.35;;;17.63;;
44214;SDS011;29884;47.450;19.124;2023-01-01T14:54:45;26.23;;;16.60;;
44214;SDS011;29884;47.450;19.124;2023-01-01T14:57:13;25.30;;;16.42;;
44214;SDS011;29884;47.450;19.124;2023-01-01T14:59:51;24.40;;;16.42;;
44214;SDS011;29884;47.450;19.124;2023-01-01T15:02:24;27.13;;;16.58;;
44214;SDS011;29884;47.450;19.124;2023-01-01T15:04:50;25.02;;;16.70;;
44214;SDS011;29884;47.450;19.124;2023-01-01T15:09:49;24.48;;;16.33;;
44214;SDS011;29884;47.450;19.124;2023-01-01T15:12:17;24.88;;;16.65;;
44214;SDS011;29884;47.450;19.124;2023-01-01T15:14:45;26.27;;;17.27;;
44214;SDS011;29884;47.450;19.124;2023-01-01T15:17:13;27.95;;;18.48;;
44214;SDS011;29884;47.450;19.124;2023-01-01T15:19:42;25.27;;;17.42;;
44214;SDS011;29884;47.450;19.124;2023-01-01T15:24:52;28.45;;;17.08;;
44214;SDS011;29884;47.450;19.124;2023-01-01T15:32:24;26.25;;;16.08;;
44214;SDS011;29884;47.450;19.124;2023-01-01T15:35:05;28.65;;;17.58;;
44214;SDS011;29884;47.450;19.124;2023-01-01T15:37:52;26.42;;;16.98;;
44214;SDS011;29884;47.450;19.124;2023-01-01T15:45:22;24.88;;;16.23;;
44214;SDS011;29884;47.450;19.124;2023-01-01T15:53:29;27.63;;;17.40;;
44214;SDS011;29884;47.450;19.124;2023-01-01T15:56:08;30.90;;;18.38;;
44214;SDS011;29884;47.450;19.124;2023-01-01T16:01:07;30.17;;;18.30;;
44214;SDS011;29884;47.450;19.124;2023-01-01T16:03:37;29.27;;;18.05;;
44214;SDS011;29884;47.450;19.124;2023-01-01T16:06:04;31.63;;;18.40;;
44214;SDS011;29884;47.450;19.124;2023-01-01T16:08:30;31.60;;;18.05;;
44214;SDS011;29884;47.450;19.124;2023-01-01T16:10:56;28.70;;;17.50;;
44214;SDS011;29884;47.450;19.124;2023-01-01T16:13:22;26.52;;;17.60;;
44214;SDS011;29884;47.450;19.124;2023-01-01T16:15:57;29.88;;;18.77;;
44214;SDS011;29884;47.450;19.124;2023-01-01T16:18:35;28.35;;;17.88;;
44214;SDS011;29884;47.450;19.124;2023-01-01T16:21:02;29.50;;;19.05;;
44214;SDS011;29884;47.450;19.124;2023-01-01T16:23:29;29.83;;;18.98;;
44214;SDS011;29884;47.450;19.124;2023-01-01T16:25:55;28.23;;;18.27;;
44214;SDS011;29884;47.450;19.124;2023-01-01T16:28:21;31.75;;;19.77;;
44214;SDS011;29884;47.450;19.124;2023-01-01T16:30:47;30.90;;;19.52;;
44214;SDS011;29884;47.450;19.124;2023-01-01T16:33:17;26.70;;;17.98;;
44214;SDS011;29884;47.450;19.124;2023-01-01T16:35:47;29.30;;;18.58;;
44214;SDS011;29884;47.450;19.124;2023-01-01T16:38:13;28.15;;;18.77;;
44214;SDS011;29884;47.450;19.124;2023-01-01T16:40:39;32.22;;;19.35;;
44214;SDS011;29884;47.450;19.124;2023-01-01T16:43:05;36.75;;;21.73;;
44214;SDS011;29884;47.450;19.124;2023-01-01T16:45:36;32.85;;;20.10;;
44214;SDS011;29884;47.450;19.124;2023-01-01T16:48:02;33.75;;;21.35;;
44214;SDS011;29884;47.450;19.124;2023-01-01T16:50:28;31.52;;;20.70;;
44214;SDS011;29884;47.450;19.124;2023-01-01T16:52:54;33.85;;;21.83;;